createdAt,value
2018-08-22T00:00:20.709Z,3.30
2018-08-22T00:02:55.129Z,2.23
2018-08-22T00:05:29.523Z,1.73
2018-08-22T00:08:03.702Z,2.70
2018-08-22T00:10:37.895Z,1.90
2018-08-22T00:13:12.203Z,2.13
2018-08-22T00:15:46.477Z,2.40
2018-08-22T00:18:20.814Z,3.30
2018-08-22T00:20:55.242Z,1.97
2018-08-22T00:23:29.421Z,2.57
2018-08-22T00:26:03.837Z,3.10
2018-08-22T00:28:38.071Z,4.83
2018-08-22T00:31:12.481Z,2.10
2018-08-22T00:33:46.803Z,3.63
2018-08-22T00:36:21.377Z,4.30
2018-08-22T00:38:55.638Z,1.67
2018-08-22T00:41:30.010Z,3.40
2018-08-22T00:44:04.338Z,2.20
2018-08-22T00:46:38.645Z,3.17
2018-08-22T00:49:12.866Z,3.97
2018-08-22T00:51:47.256Z,2.20
2018-08-22T00:54:21.541Z,1.93
2018-08-22T00:56:55.985Z,2.90
2018-08-22T00:59:30.103Z,1.87
2018-08-22T01:02:04.254Z,1.60
2018-08-22T01:04:38.401Z,1.70
2018-08-22T01:07:12.758Z,7.20
2018-08-22T01:09:47.041Z,3.10
2018-08-22T01:12:21.350Z,4.67
2018-08-22T01:14:55.754Z,2.80
2018-08-22T01:17:30.074Z,3.43
2018-08-22T01:20:04.722Z,2.37
2018-08-22T01:22:39.101Z,1.70
2018-08-22T01:25:13.389Z,2.03
2018-08-22T01:27:47.737Z,2.20
2018-08-22T01:30:22.044Z,4.40
2018-08-22T01:32:56.219Z,2.33
2018-08-22T01:35:30.498Z,1.87
2018-08-22T01:38:05.035Z,2.23
2018-08-22T01:40:39.212Z,1.87
2018-08-22T01:43:13.461Z,1.83
2018-08-22T01:45:47.805Z,5.10
2018-08-22T01:48:22.372Z,5.50
2018-08-22T01:50:56.656Z,1.30
2018-08-22T01:53:31.060Z,1.47
2018-08-22T01:56:05.622Z,3.03
2018-08-22T01:58:39.832Z,3.43
2018-08-22T02:01:14.225Z,4.07
2018-08-22T02:03:48.462Z,2.40
2018-08-22T02:06:22.663Z,3.60
2018-08-22T02:08:56.937Z,2.57
2018-08-22T02:11:31.237Z,3.07
2018-08-22T02:14:05.849Z,2.70
2018-08-22T02:16:40.018Z,2.53
2018-08-22T02:19:14.229Z,1.50
2018-08-22T02:21:48.640Z,3.27
2018-08-22T02:24:22.997Z,2.40
2018-08-22T02:26:57.128Z,2.73
2018-08-22T02:29:31.568Z,2.33
2018-08-22T02:32:06.535Z,2.37
2018-08-22T02:34:40.657Z,3.80
2018-08-22T02:37:15.030Z,1.63
2018-08-22T02:39:49.375Z,4.87
2018-08-22T02:42:23.745Z,2.40
2018-08-22T02:44:57.959Z,1.60
2018-08-22T02:47:32.313Z,6.17
2018-08-22T02:50:06.705Z,1.40
2018-08-22T02:52:40.859Z,2.17
2018-08-22T02:55:15.220Z,2.13
2018-08-22T02:57:49.617Z,5.37
2018-08-22T03:00:23.954Z,2.93
2018-08-22T03:02:58.307Z,2.17
2018-08-22T03:06:36.778Z,3.03
2018-08-22T03:09:11.062Z,3.17
2018-08-22T03:11:45.221Z,1.97
2018-08-22T03:14:19.382Z,2.73
2018-08-22T03:16:53.693Z,4.13
2018-08-22T03:19:28.080Z,2.07
2018-08-22T03:22:02.473Z,2.30
2018-08-22T03:24:36.788Z,5.40
2018-08-22T03:27:11.194Z,3.23
2018-08-22T03:29:45.420Z,2.90
2018-08-22T03:32:19.572Z,4.33
2018-08-22T03:34:53.879Z,1.70
2018-08-22T03:37:28.077Z,2.63
2018-08-22T03:40:02.447Z,3.57
2018-08-22T03:42:36.798Z,4.97
2018-08-22T03:45:10.971Z,2.63
2018-08-22T03:47:45.472Z,2.27
2018-08-22T03:50:19.851Z,3.43
2018-08-22T03:52:54.075Z,4.20
2018-08-22T03:55:28.408Z,3.07
2018-08-22T03:58:02.690Z,2.13
2018-08-22T04:00:36.971Z,2.57
2018-08-22T04:03:11.333Z,4.00
2018-08-22T04:05:45.542Z,5.42
2018-08-22T04:08:19.867Z,2.27
2018-08-22T04:10:54.037Z,4.37
2018-08-22T04:13:28.229Z,1.40
2018-08-22T04:16:02.611Z,3.73
2018-08-22T04:18:37.003Z,4.27
2018-08-22T04:21:11.233Z,3.50
2018-08-22T04:23:45.655Z,7.43
2018-08-22T04:26:20.053Z,1.60
2018-08-22T04:28:54.241Z,2.70
2018-08-22T04:31:28.680Z,2.53
2018-08-22T04:34:03.094Z,2.30
2018-08-22T04:36:37.342Z,5.07
2018-08-22T04:39:11.779Z,3.40
2018-08-22T04:41:46.048Z,3.07
2018-08-22T04:44:20.488Z,3.17
2018-08-22T04:46:54.733Z,2.10
2018-08-22T04:49:28.963Z,3.87
2018-08-22T04:52:03.299Z,2.40
2018-08-22T04:54:37.750Z,5.87
2018-08-22T04:57:12.140Z,4.43
2018-08-22T04:59:46.509Z,5.93
2018-08-22T05:02:20.787Z,3.20
2018-08-22T05:04:55.102Z,4.87
2018-08-22T05:07:29.870Z,4.23
2018-08-22T05:10:04.093Z,4.77
2018-08-22T05:12:38.309Z,4.13
2018-08-22T05:15:12.690Z,3.93
2018-08-22T05:17:46.970Z,6.97
2018-08-22T05:20:21.137Z,3.47
2018-08-22T05:22:55.413Z,3.03
2018-08-22T05:25:29.790Z,4.27
2018-08-22T05:28:04.015Z,5.80
2018-08-22T05:30:38.301Z,3.90
2018-08-22T05:33:12.686Z,2.97
2018-08-22T05:35:47.260Z,3.17
2018-08-22T05:38:21.445Z,2.77
2018-08-22T05:40:55.749Z,2.07
2018-08-22T05:43:30.169Z,3.90
2018-08-22T05:46:04.458Z,4.63
2018-08-22T05:48:38.913Z,4.07
2018-08-22T05:51:13.219Z,2.43
2018-08-22T05:53:47.576Z,5.57
2018-08-22T05:56:21.774Z,1.73
2018-08-22T05:58:56.169Z,1.97
2018-08-22T06:01:30.647Z,7.17
2018-08-22T06:04:04.873Z,5.70
2018-08-22T06:06:39.015Z,3.83
2018-08-22T06:09:13.764Z,6.73
2018-08-22T06:11:47.859Z,3.70
2018-08-22T06:14:22.159Z,3.00
2018-08-22T06:16:56.419Z,4.77
2018-08-22T06:19:30.809Z,3.97
2018-08-22T06:22:04.989Z,6.63
2018-08-22T06:24:39.290Z,5.20
2018-08-22T06:27:13.591Z,4.47
2018-08-22T06:29:47.881Z,5.93
2018-08-22T06:32:22.054Z,4.70
2018-08-22T06:34:56.169Z,5.50
2018-08-22T06:37:30.328Z,5.10
2018-08-22T06:40:05.330Z,8.07
2018-08-22T06:42:39.538Z,4.17
2018-08-22T06:45:13.789Z,6.27
2018-08-22T06:47:48.191Z,7.80
2018-08-22T06:50:22.500Z,4.40
2018-08-22T06:52:56.714Z,3.97
2018-08-22T06:55:30.939Z,5.40
2018-08-22T06:58:05.295Z,4.50
2018-08-22T07:00:39.580Z,2.07
2018-08-22T07:03:13.919Z,5.07
2018-08-22T07:05:48.215Z,3.83
2018-08-22T07:08:22.505Z,3.57
2018-08-22T07:10:56.854Z,6.70
2018-08-22T07:13:31.130Z,2.17
2018-08-22T07:16:05.304Z,2.80
2018-08-22T07:18:39.593Z,5.67
2018-08-22T07:21:14.001Z,4.53
2018-08-22T07:23:48.326Z,5.50
2018-08-22T07:26:22.651Z,5.00
2018-08-22T07:28:56.826Z,5.73
2018-08-22T07:31:31.207Z,7.33
2018-08-22T07:34:05.676Z,4.70
2018-08-22T07:36:39.891Z,4.67
2018-08-22T07:39:14.093Z,3.67
2018-08-22T07:41:48.404Z,5.17
2018-08-22T07:44:22.697Z,4.03
2018-08-22T07:46:56.889Z,3.37
2018-08-22T07:49:31.175Z,2.57
2018-08-22T07:52:05.493Z,6.67
2018-08-22T07:54:44.465Z,6.60
2018-08-22T07:57:21.815Z,4.10
2018-08-22T07:59:55.989Z,3.37
2018-08-22T08:02:30.294Z,6.03
2018-08-22T08:05:05.030Z,3.03
2018-08-22T08:07:39.223Z,4.47
2018-08-22T08:10:19.050Z,3.87
2018-08-22T08:12:53.173Z,5.70
2018-08-22T08:15:27.669Z,2.03
2018-08-22T08:18:01.874Z,2.10
2018-08-22T08:20:36.035Z,4.27
2018-08-22T08:23:10.374Z,5.20
2018-08-22T08:25:44.678Z,4.40
2018-08-22T08:28:18.894Z,4.43
2018-08-22T08:30:53.270Z,5.50
2018-08-22T08:33:27.669Z,5.17
2018-08-22T08:36:02.002Z,5.83
2018-08-22T08:38:36.112Z,5.93
2018-08-22T08:41:10.652Z,4.63
2018-08-22T08:43:44.807Z,3.50
2018-08-22T08:46:19.138Z,2.37
2018-08-22T08:48:53.430Z,3.10
2018-08-22T08:51:27.722Z,4.13
2018-08-22T08:54:01.978Z,4.97
2018-08-22T08:56:36.413Z,4.40
2018-08-22T08:59:10.767Z,2.90
2018-08-22T09:01:45.031Z,5.27
2018-08-22T09:04:19.290Z,3.30
2018-08-22T09:06:53.463Z,6.30
2018-08-22T09:09:27.854Z,3.80
2018-08-22T09:12:02.289Z,4.40
2018-08-22T09:14:37.270Z,3.57
2018-08-22T09:17:11.571Z,3.87
2018-08-22T09:19:45.854Z,1.97
2018-08-22T09:22:20.299Z,4.90
2018-08-22T09:24:54.467Z,3.30
2018-08-22T09:27:28.786Z,4.57
2018-08-22T09:30:02.972Z,3.10
2018-08-22T09:32:37.411Z,4.20
2018-08-22T09:35:11.679Z,2.23
2018-08-22T09:37:45.853Z,3.13
2018-08-22T09:40:20.016Z,2.67
2018-08-22T09:42:54.417Z,4.73
2018-08-22T09:45:28.743Z,2.73
2018-08-22T09:48:03.029Z,4.43
2018-08-22T09:50:37.377Z,9.20
2018-08-22T09:53:11.799Z,3.40
2018-08-22T09:55:46.109Z,3.93
2018-08-22T09:58:20.526Z,5.53
2018-08-22T10:01:00.127Z,4.97
2018-08-22T10:03:50.403Z,3.73
2018-08-22T10:06:30.428Z,2.27
2018-08-22T10:09:20.758Z,5.47
2018-08-22T10:11:55.067Z,6.40
2018-08-22T10:14:29.462Z,18.03
2018-08-22T10:17:03.871Z,4.53
2018-08-22T10:19:38.196Z,4.73
2018-08-22T10:22:12.611Z,7.37
2018-08-22T10:24:46.890Z,4.37
2018-08-22T10:27:21.112Z,3.53
2018-08-22T10:29:55.214Z,2.57
2018-08-22T10:32:29.422Z,5.17
2018-08-22T10:35:03.823Z,4.30
2018-08-22T10:37:38.094Z,4.43
2018-08-22T10:40:12.379Z,2.47
2018-08-22T10:42:46.669Z,2.47
2018-08-22T10:45:21.086Z,2.13
2018-08-22T10:47:55.261Z,7.77
2018-08-22T10:50:29.608Z,3.27
2018-08-22T10:53:04.010Z,4.30
2018-08-22T10:55:38.415Z,4.63
2018-08-22T10:58:12.866Z,3.23
2018-08-22T11:00:47.146Z,5.17
2018-08-22T11:03:21.331Z,6.17
2018-08-22T11:05:55.668Z,5.30
2018-08-22T11:08:31.042Z,3.73
2018-08-22T11:11:05.313Z,3.57
2018-08-22T11:13:39.602Z,6.47
2018-08-22T11:16:13.899Z,3.47
2018-08-22T11:18:48.221Z,7.60
2018-08-22T11:21:33.981Z,7.53
2018-08-22T11:24:19.770Z,4.47
2018-08-22T11:27:05.613Z,4.63
2018-08-22T11:29:51.466Z,9.63
2018-08-22T11:32:37.230Z,4.37
2018-08-22T11:35:10.606Z,5.40
2018-08-22T11:37:44.930Z,6.67
2018-08-22T11:40:19.201Z,4.47
2018-08-22T11:42:53.639Z,4.00
2018-08-22T11:45:27.996Z,4.67
2018-08-22T11:48:02.186Z,3.67
2018-08-22T11:50:36.515Z,4.57
2018-08-22T11:53:10.965Z,3.40
2018-08-22T11:55:45.209Z,3.97
2018-08-22T11:58:19.513Z,7.60
2018-08-22T12:00:53.891Z,4.37
2018-08-22T12:03:28.186Z,4.00
2018-08-22T12:06:02.829Z,4.13
2018-08-22T12:08:37.067Z,4.80
2018-08-22T12:11:11.434Z,4.87
2018-08-22T12:13:45.662Z,4.00
2018-08-22T12:16:20.000Z,5.33
2018-08-22T12:18:54.271Z,5.10
2018-08-22T12:21:28.672Z,3.80
2018-08-22T12:24:03.361Z,5.33
2018-08-22T12:26:37.638Z,4.77
2018-08-22T12:29:12.403Z,6.23
2018-08-22T12:31:46.577Z,4.90
2018-08-22T12:34:20.926Z,4.33
2018-08-22T12:36:55.223Z,3.73
2018-08-22T12:39:29.621Z,4.30
2018-08-22T12:42:04.035Z,4.17
2018-08-22T12:44:38.463Z,3.73
2018-08-22T12:47:12.639Z,16.77
2018-08-22T12:49:47.012Z,4.27
2018-08-22T12:52:21.317Z,9.63
2018-08-22T12:54:55.675Z,6.53
2018-08-22T12:57:29.943Z,4.47
2018-08-22T13:00:04.565Z,7.07
2018-08-22T13:02:38.722Z,4.57
2018-08-22T13:05:13.185Z,4.97
2018-08-22T13:07:47.568Z,5.70
2018-08-22T13:10:21.814Z,6.83
2018-08-22T13:12:55.989Z,5.83
2018-08-22T13:15:30.315Z,4.03
2018-08-22T13:18:04.983Z,4.97
2018-08-22T13:20:39.155Z,4.67
2018-08-22T13:23:13.370Z,5.17
2018-08-22T13:25:47.576Z,7.53
2018-08-22T13:28:21.818Z,5.37
2018-08-22T13:30:55.973Z,7.87
2018-08-22T13:33:30.219Z,6.57
2018-08-22T13:36:04.690Z,4.27
2018-08-22T13:38:39.005Z,4.77
2018-08-22T13:41:13.325Z,7.23
2018-08-22T13:43:47.497Z,5.53
2018-08-22T13:46:21.834Z,10.97
2018-08-22T13:48:56.078Z,4.93
2018-08-22T13:51:30.345Z,4.57
2018-08-22T13:54:04.562Z,7.53
2018-08-22T13:56:39.018Z,4.50
2018-08-22T13:59:13.322Z,7.37
2018-08-22T14:01:47.512Z,6.37
2018-08-22T14:04:21.846Z,5.30
2018-08-22T14:06:56.134Z,4.50
2018-08-22T14:09:30.488Z,4.70
2018-08-22T14:12:04.777Z,6.57
2018-08-22T14:14:38.931Z,5.60
2018-08-22T14:17:13.197Z,5.20
2018-08-22T14:19:47.582Z,5.83
2018-08-22T14:22:21.943Z,4.53
2018-08-22T14:24:56.302Z,4.80
2018-08-22T14:27:30.599Z,5.57
2018-08-22T14:30:05.897Z,7.53
2018-08-22T14:32:40.163Z,7.80
2018-08-22T14:35:14.578Z,5.13
2018-08-22T14:37:48.926Z,5.13
2018-08-22T14:40:23.178Z,5.70
2018-08-22T14:42:57.406Z,5.10
2018-08-22T14:45:31.710Z,5.53
2018-08-22T14:48:05.958Z,4.50
2018-08-22T14:50:40.334Z,7.47
2018-08-22T14:53:14.601Z,6.17
2018-08-22T14:55:48.895Z,5.17
2018-08-22T14:58:23.135Z,6.33
2018-08-22T15:00:57.323Z,5.03
2018-08-22T15:03:31.707Z,5.87
2018-08-22T15:06:05.854Z,7.17
2018-08-22T15:08:40.119Z,5.57
2018-08-22T15:11:14.290Z,5.73
2018-08-22T15:13:48.703Z,5.77
2018-08-22T15:16:23.066Z,4.87
2018-08-22T15:18:57.311Z,5.97
2018-08-22T15:21:31.755Z,10.20
2018-08-22T15:24:05.910Z,5.50
2018-08-22T15:26:40.315Z,6.03
2018-08-22T15:29:14.667Z,5.57
2018-08-22T15:31:48.831Z,8.90
2018-08-22T15:34:23.551Z,7.33
2018-08-22T15:36:57.837Z,5.07
2018-08-22T15:39:32.199Z,5.07
2018-08-22T15:42:06.374Z,6.83
2018-08-22T15:44:40.628Z,5.43
2018-08-22T15:47:15.026Z,6.50
2018-08-22T15:49:49.227Z,5.53
2018-08-22T15:52:23.530Z,6.10
2018-08-22T15:55:08.134Z,4.67
2018-08-22T15:57:56.110Z,6.33
2018-08-22T16:00:36.770Z,6.10
2018-08-22T16:03:11.297Z,7.20
2018-08-22T16:05:46.335Z,5.10
2018-08-22T16:08:25.063Z,6.13
2018-08-22T16:10:59.199Z,5.20
2018-08-22T16:13:33.399Z,5.80
2018-08-22T16:16:07.575Z,5.17
2018-08-22T16:18:41.885Z,8.10
2018-08-22T16:21:16.124Z,6.13
2018-08-22T16:23:50.451Z,4.73
2018-08-22T16:26:24.708Z,7.23
2018-08-22T16:29:00.670Z,7.10
2018-08-22T16:31:39.190Z,8.53
2018-08-22T16:34:13.874Z,7.07
2018-08-22T16:36:48.150Z,5.93
2018-08-22T16:39:37.874Z,8.10
2018-08-22T16:42:12.397Z,6.67
2018-08-22T16:44:46.577Z,11.57
2018-08-22T16:47:25.102Z,6.77
2018-08-22T16:49:59.379Z,5.90
2018-08-22T16:52:33.856Z,5.57
2018-08-22T16:55:20.460Z,5.57
2018-08-22T16:57:54.754Z,6.37
2018-08-22T17:00:36.514Z,5.13
2018-08-22T17:03:10.751Z,8.83
2018-08-22T17:05:45.174Z,4.87
2018-08-22T17:08:19.598Z,5.17
2018-08-22T17:10:56.287Z,6.00
2018-08-22T17:13:47.733Z,5.47
2018-08-22T17:16:22.948Z,5.10
2018-08-22T17:18:57.099Z,7.97
2018-08-22T17:21:31.278Z,3.87
2018-08-22T17:24:05.854Z,5.43
2018-08-22T17:26:40.189Z,6.47
2018-08-22T17:29:14.626Z,9.57
2018-08-22T17:31:54.427Z,6.33
2018-08-22T17:34:28.732Z,15.50
2018-08-22T17:37:06.077Z,5.63
2018-08-22T17:39:40.339Z,5.90
2018-08-22T17:42:14.778Z,5.07
2018-08-22T17:44:49.120Z,5.57
2018-08-22T17:47:23.365Z,7.77
2018-08-22T17:50:05.934Z,9.47
2018-08-22T17:52:40.266Z,6.57
2018-08-22T17:55:14.603Z,4.73
2018-08-22T17:57:49.491Z,5.00
2018-08-22T18:00:23.663Z,8.40
2018-08-22T18:02:57.889Z,6.17
2018-08-22T18:05:33.745Z,6.40
2018-08-22T18:08:08.964Z,6.03
2018-08-22T18:10:43.208Z,4.37
2018-08-22T18:13:17.515Z,7.67
2018-08-22T18:15:51.787Z,6.53
2018-08-22T18:18:26.223Z,6.03
2018-08-22T18:21:01.058Z,9.83
2018-08-22T18:23:37.686Z,9.50
2018-08-22T18:26:12.018Z,7.97
2018-08-22T18:28:46.270Z,7.93
2018-08-22T18:31:20.559Z,7.77
2018-08-22T18:33:58.551Z,4.53
2018-08-22T18:36:32.910Z,14.70
2018-08-22T18:39:09.780Z,8.33
2018-08-22T18:41:44.109Z,9.70
2018-08-22T18:44:18.530Z,5.47
2018-08-22T18:46:52.854Z,8.90
2018-08-22T18:49:27.088Z,6.30
2018-08-22T18:52:01.212Z,9.73
2018-08-22T18:54:35.514Z,9.67
2018-08-22T18:57:09.762Z,5.53
2018-08-22T18:59:43.954Z,11.87
2018-08-22T19:02:18.155Z,5.17
2018-08-22T19:04:52.298Z,6.80
2018-08-22T19:07:26.601Z,10.00
2018-08-22T19:10:00.810Z,8.87
2018-08-22T19:12:35.239Z,6.90
2018-08-22T19:15:09.502Z,6.43
2018-08-22T19:17:43.825Z,6.00
2018-08-22T19:20:18.140Z,5.57
2018-08-22T19:22:52.394Z,5.20
2018-08-22T19:25:26.803Z,6.43
2018-08-22T19:28:01.742Z,8.27
2018-08-22T19:30:37.810Z,9.23
2018-08-22T19:33:14.273Z,6.43
2018-08-22T19:35:48.755Z,7.57
2018-08-22T19:38:24.223Z,6.43
2018-08-22T19:41:02.914Z,6.10
2018-08-22T19:43:37.209Z,11.47
2018-08-22T19:46:11.598Z,7.57
2018-08-22T19:48:45.882Z,6.97
2018-08-22T19:51:20.529Z,7.27
2018-08-22T19:54:02.310Z,7.23
2018-08-22T19:56:36.595Z,7.17
2018-08-22T19:59:10.735Z,7.57
2018-08-22T20:01:44.923Z,5.67
2018-08-22T20:04:19.208Z,10.10
2018-08-22T20:06:53.460Z,7.07
2018-08-22T20:09:27.853Z,7.43
2018-08-22T20:12:02.141Z,5.67
2018-08-22T20:14:46.603Z,8.07
2018-08-22T20:17:26.215Z,8.37
2018-08-22T20:20:00.413Z,9.70
2018-08-22T20:22:38.659Z,5.73
2018-08-22T20:25:13.270Z,7.37
2018-08-22T20:27:47.470Z,5.60
2018-08-22T20:30:22.314Z,6.83
2018-08-22T20:33:01.948Z,5.87
2018-08-22T20:36:01.326Z,10.87
2018-08-22T20:38:56.902Z,11.60
2018-08-22T20:41:31.143Z,6.40
2018-08-22T20:44:15.054Z,9.83
2018-08-22T20:46:49.490Z,6.70
2018-08-22T20:49:23.795Z,9.47
2018-08-22T20:51:58.171Z,7.10
2018-08-22T20:54:32.311Z,7.17
2018-08-22T20:57:06.718Z,9.07
2018-08-22T20:59:41.014Z,11.83
2018-08-22T21:02:16.330Z,7.77
2018-08-22T21:04:50.579Z,6.57
2018-08-22T21:07:26.373Z,9.83
2018-08-22T21:10:00.617Z,7.37
2018-08-22T21:12:34.918Z,8.23
2018-08-22T21:15:09.098Z,10.77
2018-08-22T21:17:43.414Z,10.10
2018-08-22T21:20:22.492Z,11.13
2018-08-22T21:22:57.311Z,10.93
2018-08-22T21:25:31.649Z,8.77
2018-08-22T21:28:05.891Z,7.83
2018-08-22T21:30:44.433Z,7.77
2018-08-22T21:33:18.770Z,8.70
2018-08-22T21:35:53.163Z,10.60
2018-08-22T21:38:27.530Z,10.13
2018-08-22T21:41:01.810Z,11.43
2018-08-22T21:43:36.119Z,13.43
2018-08-22T21:46:10.614Z,10.57
2018-08-22T21:48:44.887Z,14.00
2018-08-22T21:51:19.593Z,10.77
2018-08-22T21:53:53.927Z,15.40
2018-08-22T21:56:28.149Z,13.03
2018-08-22T21:59:02.462Z,13.87
2018-08-22T22:01:44.947Z,12.83
2018-08-22T22:04:26.418Z,14.07
2018-08-22T22:07:00.743Z,16.53
2018-08-22T22:09:35.498Z,14.40
2018-08-22T22:12:15.210Z,12.93
2018-08-22T22:14:49.436Z,18.97
2018-08-22T22:17:23.787Z,16.97
2018-08-22T22:19:58.037Z,15.30
2018-08-22T22:22:32.296Z,15.80
2018-08-22T22:25:06.941Z,16.03
2018-08-22T22:27:41.287Z,15.13
2018-08-22T22:30:15.568Z,17.10
2018-08-22T22:32:49.908Z,18.73
2018-08-22T22:35:29.529Z,21.70
2018-08-22T22:38:07.845Z,24.50
2018-08-22T22:40:42.075Z,20.37
2018-08-22T22:43:16.274Z,22.00
2018-08-22T22:45:51.182Z,24.60
2018-08-22T22:48:36.834Z,23.60
2018-08-22T22:51:11.302Z,24.07
2018-08-22T22:53:45.608Z,21.67
2018-08-22T22:56:19.863Z,21.43
2018-08-22T22:58:54.147Z,22.70
2018-08-22T23:01:28.418Z,21.00
2018-08-22T23:04:02.830Z,28.60
2018-08-22T23:06:37.271Z,22.50
2018-08-22T23:09:11.509Z,22.40
2018-08-22T23:11:45.890Z,25.30
2018-08-22T23:14:20.070Z,25.00
2018-08-22T23:16:54.272Z,22.07
2018-08-22T23:19:28.417Z,26.27
2018-08-22T23:22:02.750Z,27.30
2018-08-22T23:24:37.019Z,23.27
2018-08-22T23:27:11.249Z,23.50
2018-08-22T23:29:45.605Z,26.90
2018-08-22T23:32:19.781Z,26.87
2018-08-22T23:34:54.242Z,25.90
2018-08-22T23:37:28.499Z,25.50
2018-08-22T23:40:02.699Z,29.30
2018-08-22T23:42:36.958Z,26.60
2018-08-22T23:45:11.386Z,29.73
2018-08-22T23:47:45.541Z,27.87
2018-08-22T23:50:20.110Z,25.80
2018-08-22T23:52:55.450Z,30.70
2018-08-22T23:55:29.657Z,34.23
2018-08-22T23:58:03.924Z,27.90
